sensor_id;sensor_type;location;lat;lon;timestamp;temperature;humidity
65235;DHT22;51820;48.374;10.930;2022-11-25T00:01:28;6.10;71.90
65235;DHT22;51820;48.374;10.930;2022-11-25T00:03:57;6.10;72.20
65235;DHT22;51820;48.374;10.930;2022-11-25T00:06:27;6.10;72.10
65235;DHT22;51820;48.374;10.930;2022-11-25T00:08:57;6.10;72.20
65235;DHT22;51820;48.374;10.930;2022-11-25T00:11:28;7.60;90.30
65235;DHT22;51820;48.374;10.930;2022-11-25T00:18:55;6.00;71.80
65235;DHT22;51820;48.374;10.930;2022-11-25T00:21:24;6.00;71.60
65235;DHT22;51820;48.374;10.930;2022-11-25T00:23:54;6.00;71.70
65235;DHT22;51820;48.374;10.930;2022-11-25T00:26:24;6.00;71.60
65235;DHT22;51820;48.374;10.930;2022-11-25T00:28:56;5.90;71.40
65235;DHT22;51820;48.374;10.930;2022-11-25T00:31:26;5.80;71.70
65235;DHT22;51820;48.374;10.930;2022-11-25T00:33:54;6.60;89.90
65235;DHT22;51820;48.374;10.930;2022-11-25T00:36:24;5.70;71.90
65235;DHT22;51820;48.374;10.930;2022-11-25T00:38:54;5.70;72.00
65235;DHT22;51820;48.374;10.930;2022-11-25T00:44:12;5.70;71.80
65235;DHT22;51820;48.374;10.930;2022-11-25T00:59:22;5.50;72.50
65235;DHT22;51820;48.374;10.930;2022-11-25T01:16:43;5.30;72.70
65235;DHT22;51820;48.374;10.930;2022-11-25T01:19:11;5.30;72.90
65235;DHT22;51820;48.374;10.930;2022-11-25T01:24:11;5.30;72.70
65235;DHT22;51820;48.374;10.930;2022-11-25T01:29:12;5.30;72.80
65235;DHT22;51820;48.374;10.930;2022-11-25T01:31:43;5.30;72.50
65235;DHT22;51820;48.374;10.930;2022-11-25T01:34:14;5.30;72.50
65235;DHT22;51820;48.374;10.930;2022-11-25T01:39:15;5.30;72.10
65235;DHT22;51820;48.374;10.930;2022-11-25T01:44:14;5.40;71.90
65235;DHT22;51820;48.374;10.930;2022-11-25T01:46:57;9.40;90.90
65235;DHT22;51820;48.374;10.930;2022-11-25T01:49:33;5.30;71.80
65235;DHT22;51820;48.374;10.930;2022-11-25T01:52:08;5.20;72.00
65235;DHT22;51820;48.374;10.930;2022-11-25T01:54:43;5.20;72.20
65235;DHT22;51820;48.374;10.930;2022-11-25T01:57:17;5.10;72.40
65235;DHT22;51820;48.374;10.930;2022-11-25T01:59:49;5.10;72.50
65235;DHT22;51820;48.374;10.930;2022-11-25T02:02:20;5.10;72.80
65235;DHT22;51820;48.374;10.930;2022-11-25T02:04:49;5.00;72.80
65235;DHT22;51820;48.374;10.930;2022-11-25T02:07:21;5.00;73.00
65235;DHT22;51820;48.374;10.930;2022-11-25T02:14:50;5.00;73.20
65235;DHT22;51820;48.374;10.930;2022-11-25T02:17:21;5.10;73.20
65235;DHT22;51820;48.374;10.930;2022-11-25T02:19:58;5.10;72.90
65235;DHT22;51820;48.374;10.930;2022-11-25T02:22:38;5.00;72.90
65235;DHT22;51820;48.374;10.930;2022-11-25T02:25:13;5.00;73.00
65235;DHT22;51820;48.374;10.930;2022-11-25T02:27:43;5.00;72.80
65235;DHT22;51820;48.374;10.930;2022-11-25T02:35:34;5.00;73.40
65235;DHT22;51820;48.374;10.930;2022-11-25T02:38:07;5.00;73.30
65235;DHT22;51820;48.374;10.930;2022-11-25T02:40:41;5.00;73.30
65235;DHT22;51820;48.374;10.930;2022-11-25T02:43:11;4.90;73.60
65235;DHT22;51820;48.374;10.930;2022-11-25T02:45:51;4.60;90.50
65235;DHT22;51820;48.374;10.930;2022-11-25T02:51:11;4.90;73.70
65235;DHT22;51820;48.374;10.930;2022-11-25T02:56:11;4.90;73.70
65235;DHT22;51820;48.374;10.930;2022-11-25T02:58:40;4.90;73.80
65235;DHT22;51820;48.374;10.930;2022-11-25T03:13:36;4.90;73.80
65235;DHT22;51820;48.374;10.930;2022-11-25T03:26:04;5.00;72.90
65235;DHT22;51820;48.374;10.930;2022-11-25T03:31:02;5.00;72.70
65235;DHT22;51820;48.374;10.930;2022-11-25T03:48:23;4.80;72.60
65235;DHT22;51820;48.374;10.930;2022-11-25T04:05:50;4.90;72.70
65235;DHT22;51820;48.374;10.930;2022-11-25T04:20:54;4.70;72.80
65235;DHT22;51820;48.374;10.930;2022-11-25T04:31:05;4.60;72.90
65235;DHT22;51820;48.374;10.930;2022-11-25T04:36:07;4.60;73.00
65235;DHT22;51820;48.374;10.930;2022-11-25T04:46:13;4.50;72.90
65235;DHT22;51820;48.374;10.930;2022-11-25T04:51:17;4.50;73.00
65235;DHT22;51820;48.374;10.930;2022-11-25T04:56:18;4.50;73.80
65235;DHT22;51820;48.374;10.930;2022-11-25T05:07:00;4.50;73.30
65235;DHT22;51820;48.374;10.930;2022-11-25T05:12:06;8.30;91.40
65235;DHT22;51820;48.374;10.930;2022-11-25T05:17:04;2.10;90.00
65235;DHT22;51820;48.374;10.930;2022-11-25T05:22:04;4.60;72.50
65235;DHT22;51820;48.374;10.930;2022-11-25T05:39:29;4.60;72.10
65235;DHT22;51820;48.374;10.930;2022-11-25T05:42:28;4.50;72.10
65235;DHT22;51820;48.374;10.930;2022-11-25T05:55:01;4.50;72.30
65235;DHT22;51820;48.374;10.930;2022-11-25T06:00:05;4.50;72.40
65235;DHT22;51820;48.374;10.930;2022-11-25T06:02:48;4.50;72.30
65235;DHT22;51820;48.374;10.930;2022-11-25T06:08:04;4.40;72.40
65235;DHT22;51820;48.374;10.930;2022-11-25T06:10:36;4.50;72.50
65235;DHT22;51820;48.374;10.930;2022-11-25T06:25:50;4.40;72.00
65235;DHT22;51820;48.374;10.930;2022-11-25T06:40:59;4.40;72.20
65235;DHT22;51820;48.374;10.930;2022-11-25T06:46:02;4.40;72.40
65235;DHT22;51820;48.374;10.930;2022-11-25T06:48:31;4.40;72.10
65235;DHT22;51820;48.374;10.930;2022-11-25T06:51:00;1.90;88.80
65235;DHT22;51820;48.374;10.930;2022-11-25T06:53:30;4.40;72.50
65235;DHT22;51820;48.374;10.930;2022-11-25T06:56:04;5.90;90.40
65235;DHT22;51820;48.374;10.930;2022-11-25T07:01:12;4.40;72.40
65235;DHT22;51820;48.374;10.930;2022-11-25T07:06:10;4.50;72.50
65235;DHT22;51820;48.374;10.930;2022-11-25T07:11:13;4.60;72.30
65235;DHT22;51820;48.374;10.930;2022-11-25T07:21:10;4.60;72.30
65235;DHT22;51820;48.374;10.930;2022-11-25T07:23:41;4.60;72.20
65235;DHT22;51820;48.374;10.930;2022-11-25T07:26:13;4.60;72.10
65235;DHT22;51820;48.374;10.930;2022-11-25T07:28:42;4.70;71.80
65235;DHT22;51820;48.374;10.930;2022-11-25T07:31:14;4.70;71.40
65235;DHT22;51820;48.374;10.930;2022-11-25T07:33:59;4.70;71.40
65235;DHT22;51820;48.374;10.930;2022-11-25T07:36:29;4.70;71.20
65235;DHT22;51820;48.374;10.930;2022-11-25T07:38:58;4.80;71.40
65235;DHT22;51820;48.374;10.930;2022-11-25T07:41:29;4.70;71.20
65235;DHT22;51820;48.374;10.930;2022-11-25T07:43:58;4.70;71.50
65235;DHT22;51820;48.374;10.930;2022-11-25T07:46:31;4.80;71.60
65235;DHT22;51820;48.374;10.930;2022-11-25T07:49:02;4.80;71.30
65235;DHT22;51820;48.374;10.930;2022-11-25T07:51:32;4.80;71.10
65235;DHT22;51820;48.374;10.930;2022-11-25T07:54:02;4.80;71.00
65235;DHT22;51820;48.374;10.930;2022-11-25T07:56:35;4.80;71.20
65235;DHT22;51820;48.374;10.930;2022-11-25T07:59:04;4.80;71.10
65235;DHT22;51820;48.374;10.930;2022-11-25T08:04:12;4.90;71.90
65235;DHT22;51820;48.374;10.930;2022-11-25T08:06:50;4.90;71.00
65235;DHT22;51820;48.374;10.930;2022-11-25T08:09:21;4.90;71.00
65235;DHT22;51820;48.374;10.930;2022-11-25T08:11:54;4.90;71.00
65235;DHT22;51820;48.374;10.930;2022-11-25T08:26:58;5.10;71.00
65235;DHT22;51820;48.374;10.930;2022-11-25T08:42:24;5.30;69.00
65235;DHT22;51820;48.374;10.930;2022-11-25T08:52:21;5.30;68.70
65235;DHT22;51820;48.374;10.930;2022-11-25T08:59:51;5.40;68.80
65235;DHT22;51820;48.374;10.930;2022-11-25T09:17:14;6.00;69.20
65235;DHT22;51820;48.374;10.930;2022-11-25T09:24:41;6.90;67.50
65235;DHT22;51820;48.374;10.930;2022-11-25T09:34:38;7.90;64.40
65235;DHT22;51820;48.374;10.930;2022-11-25T09:37:06;10.60;79.10
65235;DHT22;51820;48.374;10.930;2022-11-25T09:39:34;7.00;77.10
65235;DHT22;51820;48.374;10.930;2022-11-25T09:42:14;8.60;62.00
65235;DHT22;51820;48.374;10.930;2022-11-25T09:45:12;8.90;60.60
65235;DHT22;51820;48.374;10.930;2022-11-25T09:48:17;9.20;60.40
65235;DHT22;51820;48.374;10.930;2022-11-25T09:50:58;9.40;60.00
65235;DHT22;51820;48.374;10.930;2022-11-25T09:53:40;9.70;59.00
65235;DHT22;51820;48.374;10.930;2022-11-25T09:56:17;9.90;57.80
65235;DHT22;51820;48.374;10.930;2022-11-25T09:58:55;8.00;70.10
65235;DHT22;51820;48.374;10.930;2022-11-25T10:01:28;10.20;56.60
65235;DHT22;51820;48.374;10.930;2022-11-25T10:04:01;10.40;56.60
65235;DHT22;51820;48.374;10.930;2022-11-25T10:06:35;10.40;71.00
65235;DHT22;51820;48.374;10.930;2022-11-25T10:09:11;10.80;55.70
65235;DHT22;51820;48.374;10.930;2022-11-25T10:11:48;10.90;54.20
65235;DHT22;51820;48.374;10.930;2022-11-25T10:14:25;9.20;67.10
65235;DHT22;51820;48.374;10.930;2022-11-25T10:17:00;11.20;53.80
65235;DHT22;51820;48.374;10.930;2022-11-25T10:19:42;11.90;53.90
65235;DHT22;51820;48.374;10.930;2022-11-25T10:22:22;11.50;52.20
65235;DHT22;51820;48.374;10.930;2022-11-25T10:24:53;11.70;52.70
65235;DHT22;51820;48.374;10.930;2022-11-25T10:27:27;11.80;52.70
65235;DHT22;51820;48.374;10.930;2022-11-25T10:30:02;12.00;53.30
65235;DHT22;51820;48.374;10.930;2022-11-25T10:32:36;15.90;69.20
65235;DHT22;51820;48.374;10.930;2022-11-25T10:35:20;12.40;53.10
65235;DHT22;51820;48.374;10.930;2022-11-25T10:37:53;11.60;64.90
65235;DHT22;51820;48.374;10.930;2022-11-25T10:42:52;12.60;51.70
65235;DHT22;51820;48.374;10.930;2022-11-25T10:45:28;12.70;50.90
65235;DHT22;51820;48.374;10.930;2022-11-25T10:48:26;12.60;51.60
65235;DHT22;51820;48.374;10.930;2022-11-25T10:51:11;12.70;52.40
65235;DHT22;51820;48.374;10.930;2022-11-25T10:54:09;16.90;68.00
65235;DHT22;51820;48.374;10.930;2022-11-25T10:56:48;12.30;63.80
65235;DHT22;51820;48.374;10.930;2022-11-25T10:59:26;11.20;63.90
65235;DHT22;51820;48.374;10.930;2022-11-25T11:02:13;12.70;50.50
65235;DHT22;51820;48.374;10.930;2022-11-25T11:04:57;11.50;64.30
65235;DHT22;51820;48.374;10.930;2022-11-25T11:07:26;12.80;50.40
65235;DHT22;51820;48.374;10.930;2022-11-25T11:10:14;12.80;51.00
65235;DHT22;51820;48.374;10.930;2022-11-25T11:12:56;12.90;52.00
65235;DHT22;51820;48.374;10.930;2022-11-25T11:15:26;12.90;48.90
65235;DHT22;51820;48.374;10.930;2022-11-25T11:17:57;12.80;48.90
65235;DHT22;51820;48.374;10.930;2022-11-25T11:20:27;12.70;49.90
65235;DHT22;51820;48.374;10.930;2022-11-25T11:23:01;12.70;50.20
65235;DHT22;51820;48.374;10.930;2022-11-25T11:26:03;12.80;50.60
65235;DHT22;51820;48.374;10.930;2022-11-25T11:28:39;13.00;50.50
65235;DHT22;51820;48.374;10.930;2022-11-25T11:31:16;13.10;50.00
65235;DHT22;51820;48.374;10.930;2022-11-25T11:33:51;13.20;49.20
65235;DHT22;51820;48.374;10.930;2022-11-25T11:36:31;13.00;62.60
65235;DHT22;51820;48.374;10.930;2022-11-25T11:39:18;13.20;48.90
65235;DHT22;51820;48.374;10.930;2022-11-25T11:41:54;13.30;50.20
65235;DHT22;51820;48.374;10.930;2022-11-25T11:44:34;13.50;48.90
65235;DHT22;51820;48.374;10.930;2022-11-25T11:47:14;13.60;48.50
65235;DHT22;51820;48.374;10.930;2022-11-25T11:50:00;13.60;48.40
65235;DHT22;51820;48.374;10.930;2022-11-25T11:52:39;12.80;61.70
65235;DHT22;51820;48.374;10.930;2022-11-25T11:55:25;14.30;63.60
65235;DHT22;51820;48.374;10.930;2022-11-25T11:58:03;11.80;63.80
65235;DHT22;51820;48.374;10.930;2022-11-25T12:00:39;13.00;50.20
65235;DHT22;51820;48.374;10.930;2022-11-25T12:03:15;12.90;50.70
65235;DHT22;51820;48.374;10.930;2022-11-25T12:08:17;12.70;50.60
65235;DHT22;51820;48.374;10.930;2022-11-25T12:10:53;12.70;51.00
65235;DHT22;51820;48.374;10.930;2022-11-25T12:13:28;12.60;51.40
65235;DHT22;51820;48.374;10.930;2022-11-25T12:16:03;12.60;50.90
65235;DHT22;51820;48.374;10.930;2022-11-25T12:18:39;12.60;51.70
65235;DHT22;51820;48.374;10.930;2022-11-25T12:21:23;12.40;51.00
65235;DHT22;51820;48.374;10.930;2022-11-25T12:24:00;12.50;51.50
65235;DHT22;51820;48.374;10.930;2022-11-25T12:26:45;12.50;52.00
65235;DHT22;51820;48.374;10.930;2022-11-25T12:29:24;12.60;52.60
65235;DHT22;51820;48.374;10.930;2022-11-25T12:32:01;12.80;52.10
65235;DHT22;51820;48.374;10.930;2022-11-25T12:34:41;14.00;53.20
65235;DHT22;51820;48.374;10.930;2022-11-25T12:37:43;13.00;52.10
65235;DHT22;51820;48.374;10.930;2022-11-25T12:40:23;13.00;52.90
65235;DHT22;51820;48.374;10.930;2022-11-25T12:43:00;13.00;52.00
65235;DHT22;51820;48.374;10.930;2022-11-25T12:45:32;13.00;52.40
65235;DHT22;51820;48.374;10.930;2022-11-25T12:50:53;12.90;52.00
65235;DHT22;51820;48.374;10.930;2022-11-25T12:53:31;12.90;52.80
65235;DHT22;51820;48.374;10.930;2022-11-25T12:56:13;12.70;52.90
65235;DHT22;51820;48.374;10.930;2022-11-25T12:58:52;12.90;52.80
65235;DHT22;51820;48.374;10.930;2022-11-25T13:01:52;12.80;52.70
65235;DHT22;51820;48.374;10.930;2022-11-25T13:04:48;12.80;53.30
65235;DHT22;51820;48.374;10.930;2022-11-25T13:07:41;12.80;53.80
65235;DHT22;51820;48.374;10.930;2022-11-25T13:10:36;12.80;53.70
65235;DHT22;51820;48.374;10.930;2022-11-25T13:13:21;12.70;53.90
65235;DHT22;51820;48.374;10.930;2022-11-25T13:15:53;12.70;54.30
65235;DHT22;51820;48.374;10.930;2022-11-25T13:18:27;12.60;54.30
65235;DHT22;51820;48.374;10.930;2022-11-25T13:21:06;12.60;54.60
65235;DHT22;51820;48.374;10.930;2022-11-25T13:23:46;12.50;54.50
65235;DHT22;51820;48.374;10.930;2022-11-25T13:26:46;12.40;54.50
65235;DHT22;51820;48.374;10.930;2022-11-25T13:32:38;12.30;55.70
65235;DHT22;51820;48.374;10.930;2022-11-25T13:35:47;16.00;72.40
65235;DHT22;51820;48.374;10.930;2022-11-25T13:38:38;12.20;56.20
65235;DHT22;51820;48.374;10.930;2022-11-25T13:41:38;12.10;56.30
65235;DHT22;51820;48.374;10.930;2022-11-25T13:44:20;12.10;57.00
65235;DHT22;51820;48.374;10.930;2022-11-25T13:46:49;12.00;57.90
65235;DHT22;51820;48.374;10.930;2022-11-25T13:49:31;11.90;58.60
65235;DHT22;51820;48.374;10.930;2022-11-25T13:52:19;11.90;58.90
65235;DHT22;51820;48.374;10.930;2022-11-25T13:54:54;11.90;59.80
65235;DHT22;51820;48.374;10.930;2022-11-25T13:57:25;11.90;63.50
65235;DHT22;51820;48.374;10.930;2022-11-25T13:59:57;11.80;61.20
65235;DHT22;51820;48.374;10.930;2022-11-25T14:02:37;11.80;60.60
65235;DHT22;51820;48.374;10.930;2022-11-25T14:05:44;11.70;61.20
65235;DHT22;51820;48.374;10.930;2022-11-25T14:08:26;11.70;62.50
65235;DHT22;51820;48.374;10.930;2022-11-25T14:11:14;11.70;62.70
65235;DHT22;51820;48.374;10.930;2022-11-25T14:13:56;9.70;76.20
65235;DHT22;51820;48.374;10.930;2022-11-25T14:16:47;11.70;62.30
65235;DHT22;51820;48.374;10.930;2022-11-25T14:22:36;11.60;62.30
65235;DHT22;51820;48.374;10.930;2022-11-25T14:25:15;11.60;62.40
65235;DHT22;51820;48.374;10.930;2022-11-25T14:27:49;11.60;62.80
65235;DHT22;51820;48.374;10.930;2022-11-25T14:32:52;11.50;63.10
65235;DHT22;51820;48.374;10.930;2022-11-25T14:35:28;11.50;63.10
65235;DHT22;51820;48.374;10.930;2022-11-25T14:37:59;15.10;65.50
65235;DHT22;51820;48.374;10.930;2022-11-25T14:40:35;11.40;63.90
65235;DHT22;51820;48.374;10.930;2022-11-25T14:43:10;11.40;64.40
65235;DHT22;51820;48.374;10.930;2022-11-25T14:48:12;11.30;66.00
65235;DHT22;51820;48.374;10.930;2022-11-25T14:50:53;11.20;66.40
65235;DHT22;51820;48.374;10.930;2022-11-25T14:55:52;11.10;67.50
65235;DHT22;51820;48.374;10.930;2022-11-25T14:58:24;11.10;67.90
65235;DHT22;51820;48.374;10.930;2022-11-25T15:01:01;11.10;68.00
65235;DHT22;51820;48.374;10.930;2022-11-25T15:03:33;11.10;68.30
65235;DHT22;51820;48.374;10.930;2022-11-25T15:06:04;11.00;68.80
65235;DHT22;51820;48.374;10.930;2022-11-25T15:08:38;11.00;68.30
65235;DHT22;51820;48.374;10.930;2022-11-25T15:11:13;10.90;69.20
65235;DHT22;51820;48.374;10.930;2022-11-25T15:13:47;10.90;69.00
65235;DHT22;51820;48.374;10.930;2022-11-25T15:16:19;10.80;69.10
65235;DHT22;51820;48.374;10.930;2022-11-25T15:18:49;10.90;69.60
65235;DHT22;51820;48.374;10.930;2022-11-25T15:21:21;10.90;69.60
65235;DHT22;51820;48.374;10.930;2022-11-25T15:26:21;10.80;69.90
65235;DHT22;51820;48.374;10.930;2022-11-25T15:28:53;10.80;70.20
65235;DHT22;51820;48.374;10.930;2022-11-25T15:31:25;10.70;70.60
65235;DHT22;51820;48.374;10.930;2022-11-25T15:33:57;10.70;71.80
65235;DHT22;51820;48.374;10.930;2022-11-25T15:39:13;10.60;71.10
65235;DHT22;51820;48.374;10.930;2022-11-25T15:41:47;10.60;71.90
65235;DHT22;51820;48.374;10.930;2022-11-25T15:44:19;10.60;71.80
65235;DHT22;51820;48.374;10.930;2022-11-25T15:46:56;10.60;73.10
65235;DHT22;51820;48.374;10.930;2022-11-25T15:51:58;10.40;71.90
65235;DHT22;51820;48.374;10.930;2022-11-25T15:54:29;10.50;72.20
65235;DHT22;51820;48.374;10.930;2022-11-25T15:57:02;10.50;72.40
65235;DHT22;51820;48.374;10.930;2022-11-25T15:59:41;10.40;73.30
65235;DHT22;51820;48.374;10.930;2022-11-25T16:02:51;10.40;72.40
65235;DHT22;51820;48.374;10.930;2022-11-25T16:05:50;10.40;72.60
65235;DHT22;51820;48.374;10.930;2022-11-25T16:08:32;10.30;72.70
65235;DHT22;51820;48.374;10.930;2022-11-25T16:11:12;10.30;72.60
65235;DHT22;51820;48.374;10.930;2022-11-25T16:13:53;10.30;72.80
65235;DHT22;51820;48.374;10.930;2022-11-25T16:16:24;10.30;72.80
65235;DHT22;51820;48.374;10.930;2022-11-25T16:19:12;10.30;72.80
65235;DHT22;51820;48.374;10.930;2022-11-25T16:21:53;10.30;72.70
65235;DHT22;51820;48.374;10.930;2022-11-25T16:24:34;10.20;72.80
65235;DHT22;51820;48.374;10.930;2022-11-25T16:27:06;10.20;73.00
65235;DHT22;51820;48.374;10.930;2022-11-25T16:29:52;10.20;73.20
65235;DHT22;51820;48.374;10.930;2022-11-25T16:32:22;10.20;73.30
65235;DHT22;51820;48.374;10.930;2022-11-25T16:34:59;10.00;73.20
65235;DHT22;51820;48.374;10.930;2022-11-25T16:42:32;10.10;74.30
65235;DHT22;51820;48.374;10.930;2022-11-25T16:45:19;10.10;74.40
65235;DHT22;51820;48.374;10.930;2022-11-25T16:50:19;10.30;75.00
65235;DHT22;51820;48.374;10.930;2022-11-25T17:00:16;10.30;75.00
65235;DHT22;51820;48.374;10.930;2022-11-25T17:05:16;10.00;74.80
65235;DHT22;51820;48.374;10.930;2022-11-25T17:12:47;10.00;75.10
65235;DHT22;51820;48.374;10.930;2022-11-25T17:15:19;10.00;74.80
65235;DHT22;51820;48.374;10.930;2022-11-25T17:20:22;9.90;74.40
65235;DHT22;51820;48.374;10.930;2022-11-25T17:22:52;9.90;74.50
65235;DHT22;51820;48.374;10.930;2022-11-25T17:25:29;9.90;74.80
65235;DHT22;51820;48.374;10.930;2022-11-25T17:30:36;8.80;73.50
65235;DHT22;51820;48.374;10.930;2022-11-25T17:33:09;9.70;73.30
65235;DHT22;51820;48.374;10.930;2022-11-25T17:38:11;9.80;73.40
65235;DHT22;51820;48.374;10.930;2022-11-25T17:40:40;9.80;73.20
65235;DHT22;51820;48.374;10.930;2022-11-25T17:43:14;9.70;72.90
65235;DHT22;51820;48.374;10.930;2022-11-25T17:45:45;9.70;72.80
65235;DHT22;51820;48.374;10.930;2022-11-25T17:48:16;9.70;72.80
65235;DHT22;51820;48.374;10.930;2022-11-25T17:58:11;9.60;72.20
65235;DHT22;51820;48.374;10.930;2022-11-25T18:00:41;9.60;72.40
65235;DHT22;51820;48.374;10.930;2022-11-25T18:03:15;9.60;71.80
65235;DHT22;51820;48.374;10.930;2022-11-25T18:10:42;9.50;71.80
65235;DHT22;51820;48.374;10.930;2022-11-25T18:13:11;7.40;85.20
65235;DHT22;51820;48.374;10.930;2022-11-25T18:18:18;8.00;87.50
65235;DHT22;51820;48.374;10.930;2022-11-25T18:25:49;9.50;71.80
65235;DHT22;51820;48.374;10.930;2022-11-25T18:28:20;9.50;71.70
65235;DHT22;51820;48.374;10.930;2022-11-25T18:30:50;9.40;71.60
65235;DHT22;51820;48.374;10.930;2022-11-25T18:33:21;9.40;71.60
65235;DHT22;51820;48.374;10.930;2022-11-25T18:40:49;9.30;72.00
65235;DHT22;51820;48.374;10.930;2022-11-25T18:43:21;9.30;72.00
65235;DHT22;51820;48.374;10.930;2022-11-25T18:45:54;9.30;72.10
65235;DHT22;51820;48.374;10.930;2022-11-25T18:48:25;9.30;72.10
65235;DHT22;51820;48.374;10.930;2022-11-25T18:58:22;9.20;72.60
65235;DHT22;51820;48.374;10.930;2022-11-25T19:03:31;9.20;72.60
65235;DHT22;51820;48.374;10.930;2022-11-25T19:13:29;9.00;72.40
65235;DHT22;51820;48.374;10.930;2022-11-25T19:16:07;9.00;72.30
65235;DHT22;51820;48.374;10.930;2022-11-25T19:18:39;9.00;72.40
65235;DHT22;51820;48.374;10.930;2022-11-25T19:21:09;9.00;72.30
65235;DHT22;51820;48.374;10.930;2022-11-25T19:26:13;8.90;72.60
65235;DHT22;51820;48.374;10.930;2022-11-25T19:28:45;8.90;72.30
65235;DHT22;51820;48.374;10.930;2022-11-25T19:31:16;8.80;72.70
65235;DHT22;51820;48.374;10.930;2022-11-25T19:33:49;8.80;72.60
65235;DHT22;51820;48.374;10.930;2022-11-25T19:36:22;8.70;72.70
65235;DHT22;51820;48.374;10.930;2022-11-25T19:38:51;8.00;89.20
65235;DHT22;51820;48.374;10.930;2022-11-25T19:46:24;8.70;73.10
65235;DHT22;51820;48.374;10.930;2022-11-25T19:49:05;8.60;73.20
65235;DHT22;51820;48.374;10.930;2022-11-25T20:01:33;8.60;73.50
65235;DHT22;51820;48.374;10.930;2022-11-25T20:04:04;8.50;73.90
65235;DHT22;51820;48.374;10.930;2022-11-25T20:11:35;8.50;73.30
65235;DHT22;51820;48.374;10.930;2022-11-25T20:14:04;5.80;86.10
65235;DHT22;51820;48.374;10.930;2022-11-25T20:16:35;8.60;73.40
65235;DHT22;51820;48.374;10.930;2022-11-25T20:19:06;8.60;73.50
65235;DHT22;51820;48.374;10.930;2022-11-25T20:21:39;8.60;73.50
65235;DHT22;51820;48.374;10.930;2022-11-25T20:24:12;8.70;73.40
65235;DHT22;51820;48.374;10.930;2022-11-25T20:29:17;8.60;72.70
65235;DHT22;51820;48.374;10.930;2022-11-25T20:31:59;8.60;73.00
65235;DHT22;51820;48.374;10.930;2022-11-25T20:34:33;8.60;73.20
65235;DHT22;51820;48.374;10.930;2022-11-25T20:42:11;8.60;73.10
65235;DHT22;51820;48.374;10.930;2022-11-25T20:47:13;8.60;73.20
65235;DHT22;51820;48.374;10.930;2022-11-25T20:49:45;8.60;73.30
65235;DHT22;51820;48.374;10.930;2022-11-25T20:52:20;8.70;73.40
65235;DHT22;51820;48.374;10.930;2022-11-25T21:04:49;8.70;73.20
65235;DHT22;51820;48.374;10.930;2022-11-25T21:12:30;8.60;73.20
65235;DHT22;51820;48.374;10.930;2022-11-25T21:20:04;8.70;73.70
65235;DHT22;51820;48.374;10.930;2022-11-25T21:25:09;8.70;73.70
65235;DHT22;51820;48.374;10.930;2022-11-25T21:30:16;8.60;73.50
65235;DHT22;51820;48.374;10.930;2022-11-25T21:35:15;8.80;74.00
65235;DHT22;51820;48.374;10.930;2022-11-25T21:40:25;8.60;73.90
65235;DHT22;51820;48.374;10.930;2022-11-25T21:50:27;8.70;74.00
65235;DHT22;51820;48.374;10.930;2022-11-25T22:00:24;7.90;89.90
65235;DHT22;51820;48.374;10.930;2022-11-25T22:07:53;8.60;73.70
65235;DHT22;51820;48.374;10.930;2022-11-25T22:15:20;8.60;73.50
65235;DHT22;51820;48.374;10.930;2022-11-25T22:17:52;8.60;73.50
65235;DHT22;51820;48.374;10.930;2022-11-25T22:20:27;8.50;73.30
65235;DHT22;51820;48.374;10.930;2022-11-25T22:22:57;8.50;73.30
65235;DHT22;51820;48.374;10.930;2022-11-25T22:25:27;8.50;73.40
65235;DHT22;51820;48.374;10.930;2022-11-25T22:28:10;8.50;73.60
65235;DHT22;51820;48.374;10.930;2022-11-25T22:30:41;8.50;73.80
65235;DHT22;51820;48.374;10.930;2022-11-25T22:33:13;8.40;73.90
65235;DHT22;51820;48.374;10.930;2022-11-25T22:38:14;8.40;73.60
65235;DHT22;51820;48.374;10.930;2022-11-25T22:40:45;8.50;73.40
65235;DHT22;51820;48.374;10.930;2022-11-25T22:43:16;8.50;73.30
65235;DHT22;51820;48.374;10.930;2022-11-25T22:48:17;8.50;73.10
65235;DHT22;51820;48.374;10.930;2022-11-25T22:53:18;8.50;73.00
65235;DHT22;51820;48.374;10.930;2022-11-25T23:00:45;8.50;72.40
65235;DHT22;51820;48.374;10.930;2022-11-25T23:03:17;8.50;72.10
65235;DHT22;51820;48.374;10.930;2022-11-25T23:08:19;8.50;72.10
65235;DHT22;51820;48.374;10.930;2022-11-25T23:10:49;8.60;72.00
65235;DHT22;51820;48.374;10.930;2022-11-25T23:13:36;8.60;71.80
65235;DHT22;51820;48.374;10.930;2022-11-25T23:18:45;8.50;71.90
65235;DHT22;51820;48.374;10.930;2022-11-25T23:21:16;8.50;72.00
65235;DHT22;51820;48.374;10.930;2022-11-25T23:23:49;8.50;72.10
65235;DHT22;51820;48.374;10.930;2022-11-25T23:28:51;8.50;72.20
65235;DHT22;51820;48.374;10.930;2022-11-25T23:31:21;8.50;72.60
65235;DHT22;51820;48.374;10.930;2022-11-25T23:33:57;8.50;73.20
65235;DHT22;51820;48.374;10.930;2022-11-25T23:39:26;8.40;72.60
65235;DHT22;51820;48.374;10.930;2022-11-25T23:44:30;8.50;72.90
65235;DHT22;51820;48.374;10.930;2022-11-25T23:47:02;8.50;72.80
65235;DHT22;51820;48.374;10.930;2022-11-25T23:49:37;8.40;72.70
65235;DHT22;51820;48.374;10.930;2022-11-25T23:52:07;8.50;73.00
65235;DHT22;51820;48.374;10.930;2022-11-25T23:54:51;8.50;73.00
65235;DHT22;51820;48.374;10.930;2022-11-25T23:57:22;8.50;73.10
